sensor_id;sensor_type;location;lat;lon;timestamp;pressure;altitude;pressure_sealevel;temperature
76541;BMP280;65385;55.772;37.658;2024-02-15T00:00:22;101127.91;;;-10.84
76541;BMP280;65385;55.772;37.658;2024-02-15T00:01:26;101139.78;;;-10.86
76541;BMP280;65385;55.772;37.658;2024-02-15T00:02:26;101122.00;;;-10.83
76541;BMP280;65385;55.772;37.658;2024-02-15T00:03:27;101130.50;;;-10.86
76541;BMP280;65385;55.772;37.658;2024-02-15T00:04:28;101128.94;;;-10.88
76541;BMP280;65385;55.772;37.658;2024-02-15T00:05:29;101126.41;;;-10.88
76541;BMP280;65385;55.772;37.658;2024-02-15T00:06:29;101135.69;;;-10.89
76541;BMP280;65385;55.772;37.658;2024-02-15T00:07:30;101126.41;;;-10.88
76541;BMP280;65385;55.772;37.658;2024-02-15T00:08:31;101132.22;;;-10.86
76541;BMP280;65385;55.772;37.658;2024-02-15T00:09:31;101128.94;;;-10.88
76541;BMP280;65385;55.772;37.658;2024-02-15T00:10:32;101134.16;;;-10.91
76541;BMP280;65385;55.772;37.658;2024-02-15T00:11:33;101127.53;;;-10.94
76541;BMP280;65385;55.772;37.658;2024-02-15T00:12:34;101125.16;;;-10.97
76541;BMP280;65385;55.772;37.658;2024-02-15T00:13:34;101125.91;;;-10.95
76541;BMP280;65385;55.772;37.658;2024-02-15T00:14:36;101119.31;;;-10.97
76541;BMP280;65385;55.772;37.658;2024-02-15T00:15:39;101124.44;;;-10.99
76541;BMP280;65385;55.772;37.658;2024-02-15T00:16:40;101118.50;;;-10.98
76541;BMP280;65385;55.772;37.658;2024-02-15T00:17:40;101123.72;;;-11.02
76541;BMP280;65385;55.772;37.658;2024-02-15T00:18:41;101117.03;;;-11.03
76541;BMP280;65385;55.772;37.658;2024-02-15T00:19:42;101138.16;;;-11.04
76541;BMP280;65385;55.772;37.658;2024-02-15T00:20:42;101113.88;;;-11.07
76541;BMP280;65385;55.772;37.658;2024-02-15T00:21:45;101122.03;;;-11.02
76541;BMP280;65385;55.772;37.658;2024-02-15T00:22:45;101111.19;;;-11.04
76541;BMP280;65385;55.772;37.658;2024-02-15T00:23:48;101123.13;;;-11.08
76541;BMP280;65385;55.772;37.658;2024-02-15T00:24:49;101126.69;;;-11.12
76541;BMP280;65385;55.772;37.658;2024-02-15T00:25:51;101124.97;;;-11.11
76541;BMP280;65385;55.772;37.658;2024-02-15T00:26:52;101126.59;;;-11.10
76541;BMP280;65385;55.772;37.658;2024-02-15T00:27:54;101125.97;;;-11.14
76541;BMP280;65385;55.772;37.658;2024-02-15T00:28:54;101118.50;;;-11.17
76541;BMP280;65385;55.772;37.658;2024-02-15T00:29:55;101113.53;;;-11.18
76541;BMP280;65385;55.772;37.658;2024-02-15T00:30:55;101116.16;;;-11.20
76541;BMP280;65385;55.772;37.658;2024-02-15T00:31:56;101105.81;;;-11.15
76541;BMP280;65385;55.772;37.658;2024-02-15T00:32:57;101117.75;;;-11.19
76541;BMP280;65385;55.772;37.658;2024-02-15T00:33:57;101121.22;;;-11.20
76541;BMP280;65385;55.772;37.658;2024-02-15T00:34:59;101121.09;;;-11.18
76541;BMP280;65385;55.772;37.658;2024-02-15T00:36:00;101142.03;;;-11.16
76541;BMP280;65385;55.772;37.658;2024-02-15T00:37:02;101108.50;;;-11.18
76541;BMP280;65385;55.772;37.658;2024-02-15T00:38:03;101108.66;;;-11.21
76541;BMP280;65385;55.772;37.658;2024-02-15T00:39:03;101102.78;;;-11.22
76541;BMP280;65385;55.772;37.658;2024-02-15T00:40:06;101115.41;;;-11.22
76541;BMP280;65385;55.772;37.658;2024-02-15T00:41:07;101105.91;;;-11.17
76541;BMP280;65385;55.772;37.658;2024-02-15T00:42:08;101101.16;;;-11.23
76541;BMP280;65385;55.772;37.658;2024-02-15T00:43:09;101103.53;;;-11.20
76541;BMP280;65385;55.772;37.658;2024-02-15T00:44:10;101107.84;;;-11.22
76541;BMP280;65385;55.772;37.658;2024-02-15T00:45:11;101086.78;;;-11.21
76541;BMP280;65385;55.772;37.658;2024-02-15T00:46:11;101094.34;;;-11.21
76541;BMP280;65385;55.772;37.658;2024-02-15T00:47:12;101101.03;;;-11.20
76541;BMP280;65385;55.772;37.658;2024-02-15T00:48:13;101100.09;;;-11.19
76541;BMP280;65385;55.772;37.658;2024-02-15T00:49:14;101086.78;;;-11.21
76541;BMP280;65385;55.772;37.658;2024-02-15T00:50:15;101092.53;;;-11.19
76541;BMP280;65385;55.772;37.658;2024-02-15T00:51:15;101087.50;;;-11.19
76541;BMP280;65385;55.772;37.658;2024-02-15T00:52:16;101092.63;;;-11.20
76541;BMP280;65385;55.772;37.658;2024-02-15T00:53:20;101106.13;;;-11.21
76541;BMP280;65385;55.772;37.658;2024-02-15T00:54:21;101103.63;;;-11.21
76541;BMP280;65385;55.772;37.658;2024-02-15T00:55:23;101107.03;;;-11.22
76541;BMP280;65385;55.772;37.658;2024-02-15T00:56:23;101093.53;;;-11.21
76541;BMP280;65385;55.772;37.658;2024-02-15T00:57:24;101091.94;;;-11.24
76541;BMP280;65385;55.772;37.658;2024-02-15T00:58:26;101093.72;;;-11.26
76541;BMP280;65385;55.772;37.658;2024-02-15T00:59:27;101092.00;;;-11.25
76541;BMP280;65385;55.772;37.658;2024-02-15T01:00:28;101098.56;;;-11.21
76541;BMP280;65385;55.772;37.658;2024-02-15T01:01:28;101083.50;;;-11.23
76541;BMP280;65385;55.772;37.658;2024-02-15T01:02:29;101101.28;;;-11.26
76541;BMP280;65385;55.772;37.658;2024-02-15T01:03:30;101096.41;;;-11.29
76541;BMP280;65385;55.772;37.658;2024-02-15T01:04:31;101099.81;;;-11.30
76541;BMP280;65385;55.772;37.658;2024-02-15T01:05:31;101098.22;;;-11.32
76541;BMP280;65385;55.772;37.658;2024-02-15T01:06:34;101084.69;;;-11.30
76541;BMP280;65385;55.772;37.658;2024-02-15T01:07:34;101104.88;;;-11.30
76541;BMP280;65385;55.772;37.658;2024-02-15T01:08:35;101097.16;;;-11.27
76541;BMP280;65385;55.772;37.658;2024-02-15T01:09:37;101085.59;;;-11.32
76541;BMP280;65385;55.772;37.658;2024-02-15T01:10:37;101073.28;;;-11.38
76541;BMP280;65385;55.772;37.658;2024-02-15T01:11:38;101098.31;;;-11.34
76541;BMP280;65385;55.772;37.658;2024-02-15T01:12:39;101086.66;;;-11.36
76541;BMP280;65385;55.772;37.658;2024-02-15T01:13:39;101083.31;;;-11.37
76541;BMP280;65385;55.772;37.658;2024-02-15T01:14:41;101086.72;;;-11.38
76541;BMP280;65385;55.772;37.658;2024-02-15T01:15:43;101080.84;;;-11.38
76541;BMP280;65385;55.772;37.658;2024-02-15T01:16:45;101083.38;;;-11.38
76541;BMP280;65385;55.772;37.658;2024-02-15T01:17:46;101086.72;;;-11.38
76541;BMP280;65385;55.772;37.658;2024-02-15T01:18:47;101088.94;;;-11.32
76541;BMP280;65385;55.772;37.658;2024-02-15T01:19:48;101088.38;;;-11.37
76541;BMP280;65385;55.772;37.658;2024-02-15T01:20:48;101090.00;;;-11.36
76541;BMP280;65385;55.772;37.658;2024-02-15T01:21:49;101095.94;;;-11.37
76541;BMP280;65385;55.772;37.658;2024-02-15T01:22:49;101078.13;;;-11.34
76541;BMP280;65385;55.772;37.658;2024-02-15T01:23:52;101088.38;;;-11.37
76541;BMP280;65385;55.772;37.658;2024-02-15T01:24:54;101074.16;;;-11.40
76541;BMP280;65385;55.772;37.658;2024-02-15T01:25:54;101081.66;;;-11.38
76541;BMP280;65385;55.772;37.658;2024-02-15T01:26:55;101098.50;;;-11.38
76541;BMP280;65385;55.772;37.658;2024-02-15T01:27:56;101085.88;;;-11.38
76541;BMP280;65385;55.772;37.658;2024-02-15T01:28:57;101083.44;;;-11.40
76541;BMP280;65385;55.772;37.658;2024-02-15T01:29:57;101080.81;;;-11.37
76541;BMP280;65385;55.772;37.658;2024-02-15T01:30:58;101083.44;;;-11.40
76541;BMP280;65385;55.772;37.658;2024-02-15T01:31:58;101089.22;;;-11.38
76541;BMP280;65385;55.772;37.658;2024-02-15T01:32:59;101102.00;;;-11.41
76541;BMP280;65385;55.772;37.658;2024-02-15T01:33:59;101076.63;;;-11.38
76541;BMP280;65385;55.772;37.658;2024-02-15T01:35:02;101075.97;;;-11.42
76541;BMP280;65385;55.772;37.658;2024-02-15T01:36:04;101084.19;;;-11.38
76541;BMP280;65385;55.772;37.658;2024-02-15T01:37:05;101079.22;;;-11.40
76541;BMP280;65385;55.772;37.658;2024-02-15T01:38:06;101076.94;;;-11.44
76541;BMP280;65385;55.772;37.658;2024-02-15T01:39:07;101076.94;;;-11.44
76541;BMP280;65385;55.772;37.658;2024-02-15T01:40:08;101092.06;;;-11.44
76541;BMP280;65385;55.772;37.658;2024-02-15T01:41:13;101090.44;;;-11.45
76541;BMP280;65385;55.772;37.658;2024-02-15T01:42:13;101083.72;;;-11.46
76541;BMP280;65385;55.772;37.658;2024-02-15T01:43:14;101078.69;;;-11.46
76541;BMP280;65385;55.772;37.658;2024-02-15T01:44:16;101091.94;;;-11.41
76541;BMP280;65385;55.772;37.658;2024-02-15T01:45:16;101083.72;;;-11.46
76541;BMP280;65385;55.772;37.658;2024-02-15T01:46:17;101083.88;;;-11.49
76541;BMP280;65385;55.772;37.658;2024-02-15T01:47:18;101078.84;;;-11.49
76541;BMP280;65385;55.772;37.658;2024-02-15T01:48:23;101089.75;;;-11.49
76541;BMP280;65385;55.772;37.658;2024-02-15T01:49:24;101086.31;;;-11.48
76541;BMP280;65385;55.772;37.658;2024-02-15T01:50:25;101077.03;;;-11.47
76541;BMP280;65385;55.772;37.658;2024-02-15T01:51:26;101070.38;;;-11.48
76541;BMP280;65385;55.772;37.658;2024-02-15T01:52:28;101083.69;;;-11.45
76541;BMP280;65385;55.772;37.658;2024-02-15T01:53:29;101103.63;;;-11.40
76541;BMP280;65385;55.772;37.658;2024-02-15T01:54:30;101075.97;;;-11.42
76541;BMP280;65385;55.772;37.658;2024-02-15T01:55:32;101092.06;;;-11.44
76541;BMP280;65385;55.772;37.658;2024-02-15T01:56:33;101082.03;;;-11.46
76541;BMP280;65385;55.772;37.658;2024-02-15T01:57:35;101083.69;;;-11.45
76541;BMP280;65385;55.772;37.658;2024-02-15T01:58:39;101076.16;;;-11.46
76541;BMP280;65385;55.772;37.658;2024-02-15T01:59:41;101083.44;;;-11.40
76541;BMP280;65385;55.772;37.658;2024-02-15T02:00:42;101084.25;;;-11.40
76541;BMP280;65385;55.772;37.658;2024-02-15T02:01:43;101084.50;;;-11.44
76541;BMP280;65385;55.772;37.658;2024-02-15T02:02:45;101087.84;;;-11.44
76541;BMP280;65385;55.772;37.658;2024-02-15T02:03:47;101071.97;;;-11.46
76541;BMP280;65385;55.772;37.658;2024-02-15T02:04:48;101090.44;;;-11.45
76541;BMP280;65385;55.772;37.658;2024-02-15T02:05:49;101086.19;;;-11.45
76541;BMP280;65385;55.772;37.658;2024-02-15T02:06:49;101092.88;;;-11.44
76541;BMP280;65385;55.772;37.658;2024-02-15T02:07:50;101082.63;;;-11.41
76541;BMP280;65385;55.772;37.658;2024-02-15T02:08:51;101085.06;;;-11.39
76541;BMP280;65385;55.772;37.658;2024-02-15T02:09:51;101080.03;;;-11.39
76541;BMP280;65385;55.772;37.658;2024-02-15T02:10:52;101079.91;;;-11.36
76541;BMP280;65385;55.772;37.658;2024-02-15T02:11:54;101074.09;;;-11.38
76541;BMP280;65385;55.772;37.658;2024-02-15T02:12:55;101086.50;;;-11.33
76541;BMP280;65385;55.772;37.658;2024-02-15T02:13:56;101076.34;;;-11.32
76541;BMP280;65385;55.772;37.658;2024-02-15T02:14:57;101083.88;;;-11.30
76541;BMP280;65385;55.772;37.658;2024-02-15T02:15:57;101079.63;;;-11.30
76541;BMP280;65385;55.772;37.658;2024-02-15T02:17:13;101081.19;;;-11.27
76541;BMP280;65385;55.772;37.658;2024-02-15T02:18:14;101093.00;;;-11.28
76541;BMP280;65385;55.772;37.658;2024-02-15T02:19:14;101077.84;;;-11.28
76541;BMP280;65385;55.772;37.658;2024-02-15T02:20:17;101082.91;;;-11.28
76541;BMP280;65385;55.772;37.658;2024-02-15T02:21:18;101090.47;;;-11.28
76541;BMP280;65385;55.772;37.658;2024-02-15T02:22:18;101093.00;;;-11.28
76541;BMP280;65385;55.772;37.658;2024-02-15T02:23:21;101088.75;;;-11.27
76541;BMP280;65385;55.772;37.658;2024-02-15T02:24:24;101092.00;;;-11.25
76541;BMP280;65385;55.772;37.658;2024-02-15T02:25:25;101082.00;;;-11.27
76541;BMP280;65385;55.772;37.658;2024-02-15T02:26:26;101107.31;;;-11.28
76541;BMP280;65385;55.772;37.658;2024-02-15T02:27:28;101090.53;;;-11.29
76541;BMP280;65385;55.772;37.658;2024-02-15T02:28:29;101085.50;;;-11.29
76541;BMP280;65385;55.772;37.658;2024-02-15T02:29:29;101092.47;;;-11.34
76541;BMP280;65385;55.772;37.658;2024-02-15T02:30:30;101094.00;;;-11.32
76541;BMP280;65385;55.772;37.658;2024-02-15T02:31:34;101101.56;;;-11.32
76541;BMP280;65385;55.772;37.658;2024-02-15T02:32:35;101099.91;;;-11.33
76541;BMP280;65385;55.772;37.658;2024-02-15T02:33:36;101084.97;;;-11.36
76541;BMP280;65385;55.772;37.658;2024-02-15T02:34:37;101085.03;;;-11.37
76541;BMP280;65385;55.772;37.658;2024-02-15T02:35:37;101088.41;;;-11.38
76541;BMP280;65385;55.772;37.658;2024-02-15T02:36:38;101078.28;;;-11.37
76541;BMP280;65385;55.772;37.658;2024-02-15T02:37:41;101074.88;;;-11.36
76541;BMP280;65385;55.772;37.658;2024-02-15T02:38:42;101092.53;;;-11.36
76541;BMP280;65385;55.772;37.658;2024-02-15T02:39:45;101087.50;;;-11.36
76541;BMP280;65385;55.772;37.658;2024-02-15T02:40:46;101083.19;;;-11.34
76541;BMP280;65385;55.772;37.658;2024-02-15T02:41:46;101092.28;;;-11.31
76541;BMP280;65385;55.772;37.658;2024-02-15T02:42:49;101094.88;;;-11.33
76541;BMP280;65385;55.772;37.658;2024-02-15T02:43:50;101088.13;;;-11.32
76541;BMP280;65385;55.772;37.658;2024-02-15T02:44:51;101083.00;;;-11.31
76541;BMP280;65385;55.772;37.658;2024-02-15T02:45:51;101092.25;;;-11.30
76541;BMP280;65385;55.772;37.658;2024-02-15T02:46:52;101103.78;;;-11.26
76541;BMP280;65385;55.772;37.658;2024-02-15T02:47:53;101096.22;;;-11.26
76541;BMP280;65385;55.772;37.658;2024-02-15T02:48:54;101093.00;;;-11.28
76541;BMP280;65385;55.772;37.658;2024-02-15T02:49:54;101102.25;;;-11.28
76541;BMP280;65385;55.772;37.658;2024-02-15T02:50:55;101094.75;;;-11.30
76541;BMP280;65385;55.772;37.658;2024-02-15T02:51:56;101089.66;;;-11.28
76541;BMP280;65385;55.772;37.658;2024-02-15T02:52:56;101103.16;;;-11.29
76541;BMP280;65385;55.772;37.658;2024-02-15T02:53:57;101086.31;;;-11.29
76541;BMP280;65385;55.772;37.658;2024-02-15T02:54:58;101096.47;;;-11.30
76541;BMP280;65385;55.772;37.658;2024-02-15T02:55:59;101118.34;;;-11.31
76541;BMP280;65385;55.772;37.658;2024-02-15T02:57:00;101108.25;;;-11.31
76541;BMP280;65385;55.772;37.658;2024-02-15T02:58:00;101103.16;;;-11.29
76541;BMP280;65385;55.772;37.658;2024-02-15T02:59:01;101099.81;;;-11.30
76541;BMP280;65385;55.772;37.658;2024-02-15T03:00:11;101098.38;;;-11.35
76541;BMP280;65385;55.772;37.658;2024-02-15T03:01:14;101099.09;;;-11.33
76541;BMP280;65385;55.772;37.658;2024-02-15T03:02:15;101099.91;;;-11.33
76541;BMP280;65385;55.772;37.658;2024-02-15T03:03:16;101102.53;;;-11.34
76541;BMP280;65385;55.772;37.658;2024-02-15T03:04:16;101112.63;;;-11.34
76541;BMP280;65385;55.772;37.658;2024-02-15T03:05:17;101105.97;;;-11.35
76541;BMP280;65385;55.772;37.658;2024-02-15T03:06:21;101096.69;;;-11.35
76541;BMP280;65385;55.772;37.658;2024-02-15T03:07:22;101096.81;;;-11.38
76541;BMP280;65385;55.772;37.658;2024-02-15T03:08:24;101101.84;;;-11.38
76541;BMP280;65385;55.772;37.658;2024-02-15T03:09:24;101096.81;;;-11.38
76541;BMP280;65385;55.772;37.658;2024-02-15T03:10:29;101091.75;;;-11.38
76541;BMP280;65385;55.772;37.658;2024-02-15T03:11:30;101102.69;;;-11.37
76541;BMP280;65385;55.772;37.658;2024-02-15T03:12:31;101096.81;;;-11.38
76541;BMP280;65385;55.772;37.658;2024-02-15T03:13:32;101094.28;;;-11.38
76541;BMP280;65385;55.772;37.658;2024-02-15T03:14:33;101106.88;;;-11.38
76541;BMP280;65385;55.772;37.658;2024-02-15T03:15:36;101121.16;;;-11.37
76541;BMP280;65385;55.772;37.658;2024-02-15T03:16:36;101110.94;;;-11.34
76541;BMP280;65385;55.772;37.658;2024-02-15T03:17:45;101117.69;;;-11.34
76541;BMP280;65385;55.772;37.658;2024-02-15T03:18:46;101105.16;;;-11.36
76541;BMP280;65385;55.772;37.658;2024-02-15T03:19:47;101105.16;;;-11.36
76541;BMP280;65385;55.772;37.658;2024-02-15T03:20:49;101106.03;;;-11.37
76541;BMP280;65385;55.772;37.658;2024-02-15T03:21:50;101102.63;;;-11.36
76541;BMP280;65385;55.772;37.658;2024-02-15T03:22:54;101116.88;;;-11.35
76541;BMP280;65385;55.772;37.658;2024-02-15T03:23:55;101112.63;;;-11.34
76541;BMP280;65385;55.772;37.658;2024-02-15T03:24:56;101117.69;;;-11.34
76541;BMP280;65385;55.772;37.658;2024-02-15T03:25:56;101121.91;;;-11.35
76541;BMP280;65385;55.772;37.658;2024-02-15T03:26:57;101099.91;;;-11.33
76541;BMP280;65385;55.772;37.658;2024-02-15T03:27:59;101108.41;;;-11.34
76541;BMP280;65385;55.772;37.658;2024-02-15T03:29:04;101110.84;;;-11.32
76541;BMP280;65385;55.772;37.658;2024-02-15T03:30:05;101115.00;;;-11.31
76541;BMP280;65385;55.772;37.658;2024-02-15T03:31:07;101109.91;;;-11.30
76541;BMP280;65385;55.772;37.658;2024-02-15T03:32:08;101126.78;;;-11.32
76541;BMP280;65385;55.772;37.658;2024-02-15T03:33:10;101120.91;;;-11.32
76541;BMP280;65385;55.772;37.658;2024-02-15T03:34:10;101120.28;;;-11.36
76541;BMP280;65385;55.772;37.658;2024-02-15T03:35:11;101096.81;;;-11.38
76541;BMP280;65385;55.772;37.658;2024-02-15T03:36:16;101110.19;;;-11.36
76541;BMP280;65385;55.772;37.658;2024-02-15T03:37:18;101141.22;;;-11.34
76541;BMP280;65385;55.772;37.658;2024-02-15T03:38:21;101124.44;;;-11.35
76541;BMP280;65385;55.772;37.658;2024-02-15T03:39:21;101117.75;;;-11.36
76541;BMP280;65385;55.772;37.658;2024-02-15T03:40:24;101115.31;;;-11.37
76541;BMP280;65385;55.772;37.658;2024-02-15T03:41:28;101112.72;;;-11.36
76541;BMP280;65385;55.772;37.658;2024-02-15T03:42:33;101109.41;;;-11.38
76541;BMP280;65385;55.772;37.658;2024-02-15T03:43:37;101116.97;;;-11.38
76541;BMP280;65385;55.772;37.658;2024-02-15T03:44:37;101130.38;;;-11.36
76541;BMP280;65385;55.772;37.658;2024-02-15T03:45:39;101107.59;;;-11.34
76541;BMP280;65385;55.772;37.658;2024-02-15T03:46:40;101116.88;;;-11.35
76541;BMP280;65385;55.772;37.658;2024-02-15T03:47:40;101103.44;;;-11.35
76541;BMP280;65385;55.772;37.658;2024-02-15T03:48:42;101109.19;;;-11.33
76541;BMP280;65385;55.772;37.658;2024-02-15T03:49:46;101105.78;;;-11.32
76541;BMP280;65385;55.772;37.658;2024-02-15T03:50:47;101103.25;;;-11.32
76541;BMP280;65385;55.772;37.658;2024-02-15T03:51:48;101115.81;;;-11.31
76541;BMP280;65385;55.772;37.658;2024-02-15T03:52:49;101105.88;;;-11.34
76541;BMP280;65385;55.772;37.658;2024-02-15T03:53:51;101119.09;;;-11.29
76541;BMP280;65385;55.772;37.658;2024-02-15T03:54:52;101121.75;;;-11.32
76541;BMP280;65385;55.772;37.658;2024-02-15T03:55:54;101122.72;;;-11.34
76541;BMP280;65385;55.772;37.658;2024-02-15T03:56:54;101119.50;;;-11.38
76541;BMP280;65385;55.772;37.658;2024-02-15T03:57:57;101119.66;;;-11.41
76541;BMP280;65385;55.772;37.658;2024-02-15T03:58:58;101127.22;;;-11.41
76541;BMP280;65385;55.772;37.658;2024-02-15T03:59:59;101122.25;;;-11.43
76541;BMP280;65385;55.772;37.658;2024-02-15T04:01:00;101113.88;;;-11.43
76541;BMP280;65385;55.772;37.658;2024-02-15T04:02:01;101113.88;;;-11.43
76541;BMP280;65385;55.772;37.658;2024-02-15T04:03:04;101111.44;;;-11.45
76541;BMP280;65385;55.772;37.658;2024-02-15T04:04:05;101133.25;;;-11.44
76541;BMP280;65385;55.772;37.658;2024-02-15T04:05:06;101121.38;;;-11.42
76541;BMP280;65385;55.772;37.658;2024-02-15T04:06:09;101122.34;;;-11.44
76541;BMP280;65385;55.772;37.658;2024-02-15T04:07:10;101124.78;;;-11.43
76541;BMP280;65385;55.772;37.658;2024-02-15T04:08:12;101126.50;;;-11.43
76541;BMP280;65385;55.772;37.658;2024-02-15T04:09:13;101120.63;;;-11.44
76541;BMP280;65385;55.772;37.658;2024-02-15T04:10:14;101122.34;;;-11.44
76541;BMP280;65385;55.772;37.658;2024-02-15T04:11:32;101133.31;;;-11.45
76541;BMP280;65385;55.772;37.658;2024-02-15T04:12:33;101122.03;;;-11.38
76541;BMP280;65385;55.772;37.658;2024-02-15T04:13:34;101123.06;;;-11.42
76541;BMP280;65385;55.772;37.658;2024-02-15T04:14:35;101113.16;;;-11.47
76541;BMP280;65385;55.772;37.658;2024-02-15T04:15:36;101123.16;;;-11.44
76541;BMP280;65385;55.772;37.658;2024-02-15T04:16:37;101127.44;;;-11.46
76541;BMP280;65385;55.772;37.658;2024-02-15T04:17:38;101123.22;;;-11.45
76541;BMP280;65385;55.772;37.658;2024-02-15T04:18:39;101126.50;;;-11.43
76541;BMP280;65385;55.772;37.658;2024-02-15T04:19:39;101130.66;;;-11.42
76541;BMP280;65385;55.772;37.658;2024-02-15T04:20:40;101127.22;;;-11.41
76541;BMP280;65385;55.772;37.658;2024-02-15T04:21:46;101137.16;;;-11.38
76541;BMP280;65385;55.772;37.658;2024-02-15T04:22:47;101136.41;;;-11.40
76541;BMP280;65385;55.772;37.658;2024-02-15T04:23:50;101133.25;;;-11.44
76541;BMP280;65385;55.772;37.658;2024-02-15T04:24:52;101145.78;;;-11.42
76541;BMP280;65385;55.772;37.658;2024-02-15T04:25:53;101146.59;;;-11.42
76541;BMP280;65385;55.772;37.658;2024-02-15T04:26:54;101135.81;;;-11.45
76541;BMP280;65385;55.772;37.658;2024-02-15T04:27:55;101145.13;;;-11.47
76541;BMP280;65385;55.772;37.658;2024-02-15T04:28:58;101145.91;;;-11.45
76541;BMP280;65385;55.772;37.658;2024-02-15T04:29:59;101135.94;;;-11.48
76541;BMP280;65385;55.772;37.658;2024-02-15T04:30:59;101130.88;;;-11.48
76541;BMP280;65385;55.772;37.658;2024-02-15T04:32:00;101131.81;;;-11.49
76541;BMP280;65385;55.772;37.658;2024-02-15T04:33:01;101144.41;;;-11.49
76541;BMP280;65385;55.772;37.658;2024-02-15T04:34:02;101132.69;;;-11.50
76541;BMP280;65385;55.772;37.658;2024-02-15T04:35:04;101125.84;;;-11.48
76541;BMP280;65385;55.772;37.658;2024-02-15T04:36:06;101145.13;;;-11.47
76541;BMP280;65385;55.772;37.658;2024-02-15T04:37:07;101125.13;;;-11.50
76541;BMP280;65385;55.772;37.658;2024-02-15T04:38:07;101136.09;;;-11.51
76541;BMP280;65385;55.772;37.658;2024-02-15T04:39:08;101146.31;;;-11.54
76541;BMP280;65385;55.772;37.658;2024-02-15T04:40:12;101129.63;;;-11.57
76541;BMP280;65385;55.772;37.658;2024-02-15T04:41:14;101130.44;;;-11.56
76541;BMP280;65385;55.772;37.658;2024-02-15T04:42:15;101136.22;;;-11.54
76541;BMP280;65385;55.772;37.658;2024-02-15T04:43:17;101126.13;;;-11.54
76541;BMP280;65385;55.772;37.658;2024-02-15T04:44:19;101144.66;;;-11.55
76541;BMP280;65385;55.772;37.658;2024-02-15T04:45:27;101143.75;;;-11.53
76541;BMP280;65385;55.772;37.658;2024-02-15T04:46:39;101137.84;;;-11.53
76541;BMP280;65385;55.772;37.658;2024-02-15T04:47:41;101132.97;;;-11.56
76541;BMP280;65385;55.772;37.658;2024-02-15T04:48:42;101132.06;;;-11.55
76541;BMP280;65385;55.772;37.658;2024-02-15T04:49:43;101137.91;;;-11.55
76541;BMP280;65385;55.772;37.658;2024-02-15T04:50:44;101133.69;;;-11.54
76541;BMP280;65385;55.772;37.658;2024-02-15T04:51:46;101141.25;;;-11.54
76541;BMP280;65385;55.772;37.658;2024-02-15T04:52:47;101130.28;;;-11.53
76541;BMP280;65385;55.772;37.658;2024-02-15T04:53:50;101156.28;;;-11.51
76541;BMP280;65385;55.772;37.658;2024-02-15T04:54:51;101131.16;;;-11.54
76541;BMP280;65385;55.772;37.658;2024-02-15T04:55:54;101158.19;;;-11.56
76541;BMP280;65385;55.772;37.658;2024-02-15T04:56:55;101133.03;;;-11.58
76541;BMP280;65385;55.772;37.658;2024-02-15T04:57:57;101138.09;;;-11.58
76541;BMP280;65385;55.772;37.658;2024-02-15T04:58:57;101124.47;;;-11.55
76541;BMP280;65385;55.772;37.658;2024-02-15T04:59:58;101134.66;;;-11.57
76541;BMP280;65385;55.772;37.658;2024-02-15T05:01:00;101143.94;;;-11.57
76541;BMP280;65385;55.772;37.658;2024-02-15T05:02:00;101133.94;;;-11.59
76541;BMP280;65385;55.772;37.658;2024-02-15T05:03:01;101128.06;;;-11.59
76541;BMP280;65385;55.772;37.658;2024-02-15T05:04:02;101137.84;;;-11.53
76541;BMP280;65385;55.772;37.658;2024-02-15T05:05:07;101126.13;;;-11.54
76541;BMP280;65385;55.772;37.658;2024-02-15T05:06:08;101142.06;;;-11.54
76541;BMP280;65385;55.772;37.658;2024-02-15T05:07:10;101129.53;;;-11.55
76541;BMP280;65385;55.772;37.658;2024-02-15T05:08:11;101148.00;;;-11.55
76541;BMP280;65385;55.772;37.658;2024-02-15T05:09:11;101123.69;;;-11.56
76541;BMP280;65385;55.772;37.658;2024-02-15T05:10:12;101140.53;;;-11.56
76541;BMP280;65385;55.772;37.658;2024-02-15T05:11:12;101142.25;;;-11.57
76541;BMP280;65385;55.772;37.658;2024-02-15T05:12:25;101143.59;;;-11.50
76541;BMP280;65385;55.772;37.658;2024-02-15T05:13:25;101131.94;;;-11.52
76541;BMP280;65385;55.772;37.658;2024-02-15T05:14:26;101133.69;;;-11.54
76541;BMP280;65385;55.772;37.658;2024-02-15T05:15:27;101148.00;;;-11.55
76541;BMP280;65385;55.772;37.658;2024-02-15T05:16:27;101143.75;;;-11.53
76541;BMP280;65385;55.772;37.658;2024-02-15T05:17:28;101150.47;;;-11.53
76541;BMP280;65385;55.772;37.658;2024-02-15T05:18:31;101149.72;;;-11.55
76541;BMP280;65385;55.772;37.658;2024-02-15T05:19:34;101138.72;;;-11.54
76541;BMP280;65385;55.772;37.658;2024-02-15T05:20:36;101132.06;;;-11.55
76541;BMP280;65385;55.772;37.658;2024-02-15T05:21:37;101142.88;;;-11.53
76541;BMP280;65385;55.772;37.658;2024-02-15T05:22:39;101143.78;;;-11.54
76541;BMP280;65385;55.772;37.658;2024-02-15T05:23:40;101147.13;;;-11.54
76541;BMP280;65385;55.772;37.658;2024-02-15T05:24:42;101151.25;;;-11.51
76541;BMP280;65385;55.772;37.658;2024-02-15T05:25:42;101149.59;;;-11.52
76541;BMP280;65385;55.772;37.658;2024-02-15T05:26:45;101188.25;;;-11.52
76541;BMP280;65385;55.772;37.658;2024-02-15T05:27:51;101141.16;;;-11.51
76541;BMP280;65385;55.772;37.658;2024-02-15T05:28:53;101149.53;;;-11.51
76541;BMP280;65385;55.772;37.658;2024-02-15T05:29:54;101162.97;;;-11.50
76541;BMP280;65385;55.772;37.658;2024-02-15T05:32:12;101161.16;;;-11.48
76541;BMP280;65385;55.772;37.658;2024-02-15T05:33:15;101160.38;;;-11.49
76541;BMP280;65385;55.772;37.658;2024-02-15T05:34:15;101163.69;;;-11.48
76541;BMP280;65385;55.772;37.658;2024-02-15T05:35:16;101154.31;;;-11.45
76541;BMP280;65385;55.772;37.658;2024-02-15T05:36:18;101171.13;;;-11.45
76541;BMP280;65385;55.772;37.658;2024-02-15T05:37:20;101168.63;;;-11.45
76541;BMP280;65385;55.772;37.658;2024-02-15T05:38:21;101171.00;;;-11.42
76541;BMP280;65385;55.772;37.658;2024-02-15T05:39:21;101165.06;;;-11.41
76541;BMP280;65385;55.772;37.658;2024-02-15T05:40:23;101167.59;;;-11.41